EmailTwitter


Observations de surface / Québec / EGNH

Régions: Québec | Canada | États-Unis | Europe | France | UK | Ailleurs
Station
Affichage
Infos & localisation pour EGNH | Aide pour décoder les METARs

Observations prises le 2017-09-26 à 16H20 UTC à BLACKPOOL AIRPOR, UK (EGNH)

Etat du ciel: partiellement nuageux.

Température: 17.0 Celsius

Point de rosée: 13.0 Celsius

Humidité relative: 77%

Vents: Sud-est à 19 km/h ou 10 noeuds.

Pression au niveau moyen de la mer: 102.20 kilopascals.

Visibilité horizontale: 6.21 milles terrestres ou 9.94 kilomètres.

Hauteur du plafond: 1097 mètres ( 3600 pieds ).

Observation METAR:

EGNH 261620Z 13010KT 9999 BKN036 17/13 Q1022=